Itanagar, India
Current Conditions -  °F | °C
As of 8:20 AM on Wednesday 26 Nov 2014 (Local Time) from VGHS Reporting Station
Moderate Fog Moderate Fog  
Wind Chill: 64°   Ceiling: 100
Heat Index: 64°   Visibility: 0.18mi
Dew Point: 63°   Wind: 0mph
Humidity: 94%   Direction: NA
Pressure: 29.88"   Gusts: NA
Location:  27.13°N, 93.62°E
Report Text: VGHS 260320Z 00000KT 0300 FG OVC001 18/17 Q1012 BECMG S/VIS0500M
Loading
Personal Weather Stations






























Interactive Weather Map New forecast layout! Learn more

10-Day Weather Forecast

Advertisements
Track Severe Weather on mobile